sensor_id;sensor_type;location;lat;lon;timestamp;pressure;altitude;pressure_sealevel;temperature;humidity
79067;BME280;68470;50.224;14.348;2023-08-06T00:00:26;98581.53;;;14.03;100.00
79067;BME280;68470;50.224;14.348;2023-08-06T00:03:12;98602.84;;;14.17;100.00
79067;BME280;68470;50.224;14.348;2023-08-06T00:05:41;98599.78;;;14.18;100.00
79067;BME280;68470;50.224;14.348;2023-08-06T00:08:07;98601.63;;;14.23;100.00
79067;BME280;68470;50.224;14.348;2023-08-06T00:10:33;98600.47;;;14.24;100.00
79067;BME280;68470;50.224;14.348;2023-08-06T00:12:59;98596.91;;;14.23;100.00
79067;BME280;68470;50.224;14.348;2023-08-06T00:15:24;98592.50;;;14.22;100.00
79067;BME280;68470;50.224;14.348;2023-08-06T00:17:50;98584.81;;;14.19;100.00
79067;BME280;68470;50.224;14.348;2023-08-06T00:20:16;98591.97;;;14.20;100.00
79067;BME280;68470;50.224;14.348;2023-08-06T00:22:44;98590.53;;;14.23;100.00
79067;BME280;68470;50.224;14.348;2023-08-06T00:25:10;98592.81;;;14.21;100.00
79067;BME280;68470;50.224;14.348;2023-08-06T00:27:36;98596.69;;;14.20;100.00
79067;BME280;68470;50.224;14.348;2023-08-06T00:30:02;98576.00;;;14.17;100.00
79067;BME280;68470;50.224;14.348;2023-08-06T00:32:28;98581.94;;;14.24;100.00
79067;BME280;68470;50.224;14.348;2023-08-06T00:34:54;98556.94;;;14.15;100.00
79067;BME280;68470;50.224;14.348;2023-08-06T00:37:20;98551.59;;;14.19;100.00
79067;BME280;68470;50.224;14.348;2023-08-06T00:39:46;98546.38;;;14.18;100.00
79067;BME280;68470;50.224;14.348;2023-08-06T00:42:12;98529.97;;;14.07;100.00
79067;BME280;68470;50.224;14.348;2023-08-06T00:44:38;98536.13;;;14.04;100.00
79067;BME280;68470;50.224;14.348;2023-08-06T00:47:05;98542.50;;;14.05;100.00
79067;BME280;68470;50.224;14.348;2023-08-06T00:49:31;98537.88;;;14.00;100.00
79067;BME280;68470;50.224;14.348;2023-08-06T00:51:57;98541.97;;;14.03;100.00
79067;BME280;68470;50.224;14.348;2023-08-06T00:54:24;98542.28;;;14.01;100.00
79067;BME280;68470;50.224;14.348;2023-08-06T00:56:50;98544.34;;;13.96;100.00
79067;BME280;68470;50.224;14.348;2023-08-06T00:59:16;98543.22;;;13.97;100.00
79067;BME280;68470;50.224;14.348;2023-08-06T01:01:43;98530.53;;;13.96;100.00
79067;BME280;68470;50.224;14.348;2023-08-06T01:04:09;98522.00;;;13.92;100.00
79067;BME280;68470;50.224;14.348;2023-08-06T01:06:44;98520.59;;;13.95;100.00
79067;BME280;68470;50.224;14.348;2023-08-06T01:15:11;98522.09;;;13.87;100.00
79067;BME280;68470;50.224;14.348;2023-08-06T01:17:40;98512.69;;;13.88;100.00
79067;BME280;68470;50.224;14.348;2023-08-06T01:20:06;98514.44;;;13.84;100.00
79067;BME280;68470;50.224;14.348;2023-08-06T01:22:32;98523.25;;;13.86;100.00
79067;BME280;68470;50.224;14.348;2023-08-06T01:24:58;98518.84;;;13.85;100.00
79067;BME280;68470;50.224;14.348;2023-08-06T01:27:36;98521.72;;;13.80;100.00
79067;BME280;68470;50.224;14.348;2023-08-06T01:30:12;98515.66;;;13.78;100.00
79067;BME280;68470;50.224;14.348;2023-08-06T01:32:43;98503.38;;;13.84;100.00
79067;BME280;68470;50.224;14.348;2023-08-06T01:35:10;98501.22;;;13.81;100.00
79067;BME280;68470;50.224;14.348;2023-08-06T01:37:38;98497.13;;;13.78;100.00
79067;BME280;68470;50.224;14.348;2023-08-06T01:40:11;98503.56;;;13.74;100.00
79067;BME280;68470;50.224;14.348;2023-08-06T01:42:40;98490.88;;;13.73;100.00
79067;BME280;68470;50.224;14.348;2023-08-06T01:45:07;98499.59;;;13.80;100.00
79067;BME280;68470;50.224;14.348;2023-08-06T01:47:33;98501.94;;;13.73;100.00
79067;BME280;68470;50.224;14.348;2023-08-06T01:49:59;98485.34;;;13.73;100.00
79067;BME280;68470;50.224;14.348;2023-08-06T01:52:27;98491.38;;;13.75;100.00
79067;BME280;68470;50.224;14.348;2023-08-06T01:54:53;98494.25;;;13.70;100.00
79067;BME280;68470;50.224;14.348;2023-08-06T01:57:19;98491.38;;;13.75;100.00
79067;BME280;68470;50.224;14.348;2023-08-06T01:59:44;98485.84;;;13.75;100.00
79067;BME280;68470;50.224;14.348;2023-08-06T02:02:10;98481.03;;;13.67;100.00
79067;BME280;68470;50.224;14.348;2023-08-06T02:04:35;98495.88;;;13.71;100.00
79067;BME280;68470;50.224;14.348;2023-08-06T02:07:01;98493.75;;;13.68;100.00
79067;BME280;68470;50.224;14.348;2023-08-06T02:09:27;98495.38;;;13.69;100.00
79067;BME280;68470;50.224;14.348;2023-08-06T02:11:53;98491.38;;;13.75;100.00
79067;BME280;68470;50.224;14.348;2023-08-06T02:14:18;98483.81;;;13.67;100.00
79067;BME280;68470;50.224;14.348;2023-08-06T02:16:44;98485.56;;;13.63;100.00
79067;BME280;68470;50.224;14.348;2023-08-06T02:19:10;98493.34;;;13.61;100.00
79067;BME280;68470;50.224;14.348;2023-08-06T02:21:36;98503.28;;;13.62;100.00
79067;BME280;68470;50.224;14.348;2023-08-06T02:24:01;98500.28;;;13.72;100.00
79067;BME280;68470;50.224;14.348;2023-08-06T02:26:27;98496.41;;;13.73;100.00
79067;BME280;68470;50.224;14.348;2023-08-06T02:28:53;98493.44;;;13.69;100.00
79067;BME280;68470;50.224;14.348;2023-08-06T02:31:19;98501.41;;;13.71;100.00
79067;BME280;68470;50.224;14.348;2023-08-06T02:33:45;98493.53;;;13.78;100.00
79067;BME280;68470;50.224;14.348;2023-08-06T02:36:10;98491.59;;;13.78;100.00
79067;BME280;68470;50.224;14.348;2023-08-06T02:38:36;98489.03;;;13.82;100.00
79067;BME280;68470;50.224;14.348;2023-08-06T02:41:03;98479.41;;;13.79;100.00
79067;BME280;68470;50.224;14.348;2023-08-06T02:43:29;98479.59;;;13.83;100.00
79067;BME280;68470;50.224;14.348;2023-08-06T02:45:59;98466.41;;;13.80;100.00
79067;BME280;68470;50.224;14.348;2023-08-06T02:48:25;98461.88;;;13.84;100.00
79067;BME280;68470;50.224;14.348;2023-08-06T02:50:51;98452.06;;;13.78;100.00
79067;BME280;68470;50.224;14.348;2023-08-06T02:53:17;98450.13;;;13.78;100.00
79067;BME280;68470;50.224;14.348;2023-08-06T02:55:47;98449.81;;;13.80;100.00
79067;BME280;68470;50.224;14.348;2023-08-06T02:58:14;98457.69;;;13.73;100.00
79067;BME280;68470;50.224;14.348;2023-08-06T03:00:40;98455.94;;;13.77;100.00
79067;BME280;68470;50.224;14.348;2023-08-06T03:03:06;98452.34;;;13.76;100.00
79067;BME280;68470;50.224;14.348;2023-08-06T03:05:32;98449.06;;;13.74;100.00
79067;BME280;68470;50.224;14.348;2023-08-06T03:07:58;98452.34;;;13.76;100.00
79067;BME280;68470;50.224;14.348;2023-08-06T03:10:23;98448.75;;;13.76;100.00
79067;BME280;68470;50.224;14.348;2023-08-06T03:12:49;98446.81;;;13.76;100.00
79067;BME280;68470;50.224;14.348;2023-08-06T03:15:15;98447.13;;;13.75;100.00
79067;BME280;68470;50.224;14.348;2023-08-06T03:17:41;98440.38;;;13.81;100.00
79067;BME280;68470;50.224;14.348;2023-08-06T03:20:07;98442.72;;;13.74;100.00
79067;BME280;68470;50.224;14.348;2023-08-06T03:22:32;98439.06;;;13.78;100.00
79067;BME280;68470;50.224;14.348;2023-08-06T03:24:58;98444.16;;;13.85;100.00
79067;BME280;68470;50.224;14.348;2023-08-06T03:27:24;98427.69;;;13.66;100.00
79067;BME280;68470;50.224;14.348;2023-08-06T03:29:50;98428.28;;;13.77;100.00
79067;BME280;68470;50.224;14.348;2023-08-06T03:32:15;98424.00;;;13.71;100.00
79067;BME280;68470;50.224;14.348;2023-08-06T03:34:41;98426.44;;;13.72;100.00
79067;BME280;68470;50.224;14.348;2023-08-06T03:37:07;98425.63;;;13.72;100.00
79067;BME280;68470;50.224;14.348;2023-08-06T03:39:33;98422.84;;;13.72;100.00
79067;BME280;68470;50.224;14.348;2023-08-06T03:41:59;98416.09;;;13.78;100.00
79067;BME280;68470;50.224;14.348;2023-08-06T03:44:25;98412.81;;;13.76;100.00
79067;BME280;68470;50.224;14.348;2023-08-06T03:46:52;98412.53;;;13.77;100.00
79067;BME280;68470;50.224;14.348;2023-08-06T03:49:18;98411.69;;;13.77;100.00
79067;BME280;68470;50.224;14.348;2023-08-06T03:51:44;98407.81;;;13.78;100.00
79067;BME280;68470;50.224;14.348;2023-08-06T03:54:09;98407.91;;;13.73;100.00
79067;BME280;68470;50.224;14.348;2023-08-06T03:56:35;98408.53;;;13.70;100.00
79067;BME280;68470;50.224;14.348;2023-08-06T03:59:01;98401.66;;;13.67;100.00
79067;BME280;68470;50.224;14.348;2023-08-06T04:01:27;98390.41;;;13.64;100.00
79067;BME280;68470;50.224;14.348;2023-08-06T04:03:53;98386.53;;;13.65;100.00
79067;BME280;68470;50.224;14.348;2023-08-06T04:06:18;98392.69;;;13.62;100.00
79067;BME280;68470;50.224;14.348;2023-08-06T04:08:44;98387.34;;;13.65;100.00
79067;BME280;68470;50.224;14.348;2023-08-06T04:11:09;98363.78;;;13.54;100.00
79067;BME280;68470;50.224;14.348;2023-08-06T04:13:35;98383.25;;;13.63;100.00
79067;BME280;68470;50.224;14.348;2023-08-06T04:16:02;98375.28;;;13.61;100.00
79067;BME280;68470;50.224;14.348;2023-08-06T04:18:29;98373.81;;;13.64;100.00
79067;BME280;68470;50.224;14.348;2023-08-06T04:20:54;98374.84;;;13.68;100.00
79067;BME280;68470;50.224;14.348;2023-08-06T04:23:23;98376.56;;;13.77;100.00
79067;BME280;68470;50.224;14.348;2023-08-06T04:25:49;98370.13;;;13.68;100.00
79067;BME280;68470;50.224;14.348;2023-08-06T04:28:15;98366.03;;;13.66;100.00
79067;BME280;68470;50.224;14.348;2023-08-06T04:30:41;98367.56;;;13.72;100.00
79067;BME280;68470;50.224;14.348;2023-08-06T04:33:06;98357.31;;;13.72;100.00
79067;BME280;68470;50.224;14.348;2023-08-06T04:35:32;98361.19;;;13.71;100.00
79067;BME280;68470;50.224;14.348;2023-08-06T04:37:58;98357.31;;;13.72;100.00
79067;BME280;68470;50.224;14.348;2023-08-06T04:40:23;98355.84;;;13.75;100.00
79067;BME280;68470;50.224;14.348;2023-08-06T04:42:49;98360.47;;;13.79;100.00
79067;BME280;68470;50.224;14.348;2023-08-06T04:45:15;98374.00;;;13.81;100.00
79067;BME280;68470;50.224;14.348;2023-08-06T04:47:41;98360.97;;;13.81;100.00
79067;BME280;68470;50.224;14.348;2023-08-06T04:50:07;98352.69;;;13.81;100.00
79067;BME280;68470;50.224;14.348;2023-08-06T04:52:33;98354.00;;;13.84;100.00
79067;BME280;68470;50.224;14.348;2023-08-06T04:54:58;98352.25;;;13.88;100.00
79067;BME280;68470;50.224;14.348;2023-08-06T04:57:24;98342.31;;;13.87;100.00
79067;BME280;68470;50.224;14.348;2023-08-06T04:59:50;98347.94;;;13.96;100.00
79067;BME280;68470;50.224;14.348;2023-08-06T05:02:16;98340.97;;;13.98;100.00
79067;BME280;68470;50.224;14.348;2023-08-06T05:04:41;98344.22;;;14.00;100.00
79067;BME280;68470;50.224;14.348;2023-08-06T05:07:07;98340.69;;;14.08;100.00
79067;BME280;68470;50.224;14.348;2023-08-06T05:09:33;98335.16;;;14.08;100.00
79067;BME280;68470;50.224;14.348;2023-08-06T05:12:04;98337.59;;;14.10;100.00
79067;BME280;68470;50.224;14.348;2023-08-06T05:14:29;98330.13;;;14.10;100.00
79067;BME280;68470;50.224;14.348;2023-08-06T05:16:56;98322.47;;;14.07;100.00
79067;BME280;68470;50.224;14.348;2023-08-06T05:19:21;98313.47;;;14.02;100.00
79067;BME280;68470;50.224;14.348;2023-08-06T05:21:47;98326.53;;;14.10;100.00
79067;BME280;68470;50.224;14.348;2023-08-06T05:24:12;98329.63;;;14.08;100.00
79067;BME280;68470;50.224;14.348;2023-08-06T05:26:38;98333.09;;;14.14;100.00
79067;BME280;68470;50.224;14.348;2023-08-06T05:29:04;98330.34;;;14.14;100.00
79067;BME280;68470;50.224;14.348;2023-08-06T05:31:30;98331.66;;;14.17;100.00
79067;BME280;68470;50.224;14.348;2023-08-06T05:33:55;98334.28;;;14.22;100.00
79067;BME280;68470;50.224;14.348;2023-08-06T05:36:21;98327.44;;;14.19;100.00
79067;BME280;68470;50.224;14.348;2023-08-06T05:38:47;98327.06;;;14.34;100.00
79067;BME280;68470;50.224;14.348;2023-08-06T05:41:13;98326.25;;;14.34;100.00
79067;BME280;68470;50.224;14.348;2023-08-06T05:43:39;98327.41;;;14.41;100.00
79067;BME280;68470;50.224;14.348;2023-08-06T05:46:05;98327.50;;;14.50;100.00
79067;BME280;68470;50.224;14.348;2023-08-06T05:48:30;98318.38;;;14.50;100.00
79067;BME280;68470;50.224;14.348;2023-08-06T05:50:57;98323.47;;;14.56;100.00
79067;BME280;68470;50.224;14.348;2023-08-06T05:53:24;98323.84;;;14.63;100.00
79067;BME280;68470;50.224;14.348;2023-08-06T05:55:50;98315.72;;;14.67;100.00
79067;BME280;68470;50.224;14.348;2023-08-06T05:58:15;98315.88;;;14.70;100.00
79067;BME280;68470;50.224;14.348;2023-08-06T06:00:42;98314.09;;;14.74;100.00
79067;BME280;68470;50.224;14.348;2023-08-06T06:03:07;98331.09;;;14.82;100.00
79067;BME280;68470;50.224;14.348;2023-08-06T06:05:33;98324.59;;;14.86;100.00
79067;BME280;68470;50.224;14.348;2023-08-06T06:07:59;98324.44;;;14.91;100.00
79067;BME280;68470;50.224;14.348;2023-08-06T06:10:25;98317.38;;;14.77;100.00
79067;BME280;68470;50.224;14.348;2023-08-06T06:12:50;98312.03;;;14.80;100.00
79067;BME280;68470;50.224;14.348;2023-08-06T06:15:16;98317.59;;;14.89;100.00
79067;BME280;68470;50.224;14.348;2023-08-06T06:17:42;98312.94;;;14.98;100.00
79067;BME280;68470;50.224;14.348;2023-08-06T06:20:08;98302.16;;;14.96;100.00
79067;BME280;68470;50.224;14.348;2023-08-06T06:22:34;98317.88;;;15.18;100.00
79067;BME280;68470;50.224;14.348;2023-08-06T06:25:00;98312.34;;;15.18;100.00
79067;BME280;68470;50.224;14.348;2023-08-06T06:27:25;98309.06;;;15.16;100.00
79067;BME280;68470;50.224;14.348;2023-08-06T06:29:51;98322.13;;;15.16;100.00
79067;BME280;68470;50.224;14.348;2023-08-06T07:15:29;98316.06;;;16.14;98.37
79067;BME280;68470;50.224;14.348;2023-08-06T07:17:55;98304.47;;;16.20;97.43
79067;BME280;68470;50.224;14.348;2023-08-06T07:20:21;98316.88;;;16.23;98.05
79067;BME280;68470;50.224;14.348;2023-08-06T07:22:47;98303.28;;;16.39;96.72
79067;BME280;68470;50.224;14.348;2023-08-06T07:25:13;98305.75;;;16.23;95.93
79067;BME280;68470;50.224;14.348;2023-08-06T07:27:39;98306.38;;;16.29;97.28
79067;BME280;68470;50.224;14.348;2023-08-06T07:30:05;98300.19;;;16.23;96.22
79067;BME280;68470;50.224;14.348;2023-08-06T07:32:31;98297.47;;;16.14;97.29
79067;BME280;68470;50.224;14.348;2023-08-06T07:34:57;98300.69;;;16.25;97.54
79067;BME280;68470;50.224;14.348;2023-08-06T07:37:29;98305.28;;;16.21;96.98
79067;BME280;68470;50.224;14.348;2023-08-06T07:39:58;98303.16;;;16.18;96.86
79067;BME280;68470;50.224;14.348;2023-08-06T07:42:23;98299.41;;;16.14;98.56
79067;BME280;68470;50.224;14.348;2023-08-06T07:44:57;98300.25;;;15.97;97.69
79067;BME280;68470;50.224;14.348;2023-08-06T07:47:23;98295.16;;;15.73;97.33
79067;BME280;68470;50.224;14.348;2023-08-06T07:49:49;98296.31;;;15.81;98.57
79067;BME280;68470;50.224;14.348;2023-08-06T07:52:15;98295.31;;;15.77;98.24
79067;BME280;68470;50.224;14.348;2023-08-06T07:54:41;98279.03;;;15.84;98.22
79067;BME280;68470;50.224;14.348;2023-08-06T07:57:07;98280.16;;;15.91;98.71
79067;BME280;68470;50.224;14.348;2023-08-06T07:59:33;98283.09;;;15.86;98.36
79067;BME280;68470;50.224;14.348;2023-08-06T08:01:59;98288.81;;;15.81;98.39
79067;BME280;68470;50.224;14.348;2023-08-06T08:04:25;98276.72;;;15.86;98.83
79067;BME280;68470;50.224;14.348;2023-08-06T08:06:51;98288.34;;;15.79;99.29
79067;BME280;68470;50.224;14.348;2023-08-06T08:09:16;98279.19;;;15.70;99.43
79067;BME280;68470;50.224;14.348;2023-08-06T08:11:42;98279.84;;;15.84;98.24
79067;BME280;68470;50.224;14.348;2023-08-06T08:14:08;98275.59;;;15.87;97.77
79067;BME280;68470;50.224;14.348;2023-08-06T08:16:33;98273.81;;;15.82;97.36
79067;BME280;68470;50.224;14.348;2023-08-06T08:18:59;98269.72;;;15.80;97.23
79067;BME280;68470;50.224;14.348;2023-08-06T08:21:25;98267.75;;;15.80;96.93
79067;BME280;68470;50.224;14.348;2023-08-06T08:23:51;98270.53;;;15.89;96.81
79067;BME280;68470;50.224;14.348;2023-08-06T08:26:17;98273.78;;;16.00;97.26
79067;BME280;68470;50.224;14.348;2023-08-06T08:28:44;98272.50;;;15.97;96.81
79067;BME280;68470;50.224;14.348;2023-08-06T08:31:10;98268.09;;;15.96;96.52
79067;BME280;68470;50.224;14.348;2023-08-06T08:33:37;98271.03;;;15.82;97.52
79067;BME280;68470;50.224;14.348;2023-08-06T08:36:03;98267.25;;;15.87;96.90
79067;BME280;68470;50.224;14.348;2023-08-06T08:38:30;98268.06;;;16.05;96.41
79067;BME280;68470;50.224;14.348;2023-08-06T08:40:55;98265.47;;;16.00;94.51
79067;BME280;68470;50.224;14.348;2023-08-06T08:43:22;98270.69;;;16.01;95.90
79067;BME280;68470;50.224;14.348;2023-08-06T08:45:52;98266.75;;;16.11;95.75
79067;BME280;68470;50.224;14.348;2023-08-06T08:48:21;98262.34;;;16.18;93.29
79067;BME280;68470;50.224;14.348;2023-08-06T08:50:49;98258.22;;;16.33;92.76
79067;BME280;68470;50.224;14.348;2023-08-06T08:53:16;98260.16;;;16.41;90.36
79067;BME280;68470;50.224;14.348;2023-08-06T08:55:43;98258.84;;;16.47;91.15
79067;BME280;68470;50.224;14.348;2023-08-06T08:58:13;98257.34;;;16.50;91.22
79067;BME280;68470;50.224;14.348;2023-08-06T09:00:41;98260.16;;;16.41;91.81
79067;BME280;68470;50.224;14.348;2023-08-06T09:03:08;98261.78;;;16.42;92.15
79067;BME280;68470;50.224;14.348;2023-08-06T09:05:34;98255.97;;;16.18;91.34
79067;BME280;68470;50.224;14.348;2023-08-06T09:08:03;98247.47;;;16.23;91.55
79067;BME280;68470;50.224;14.348;2023-08-06T09:10:29;98243.34;;;16.29;91.13
79067;BME280;68470;50.224;14.348;2023-08-06T09:12:56;98251.28;;;16.57;90.49
79067;BME280;68470;50.224;14.348;2023-08-06T09:15:27;98237.78;;;16.46;90.69
79067;BME280;68470;50.224;14.348;2023-08-06T09:17:53;98244.06;;;16.64;90.33
79067;BME280;68470;50.224;14.348;2023-08-06T09:20:20;98248.47;;;16.74;89.25
79067;BME280;68470;50.224;14.348;2023-08-06T09:22:46;98239.00;;;16.58;88.62
79067;BME280;68470;50.224;14.348;2023-08-06T09:25:22;98238.41;;;16.43;90.84
79067;BME280;68470;50.224;14.348;2023-08-06T09:27:50;98231.66;;;16.70;90.99
79067;BME280;68470;50.224;14.348;2023-08-06T09:30:37;98240.72;;;16.88;90.04
79067;BME280;68470;50.224;14.348;2023-08-06T09:33:08;98239.56;;;16.89;89.97
79067;BME280;68470;50.224;14.348;2023-08-06T09:35:35;98234.16;;;16.93;89.55
79067;BME280;68470;50.224;14.348;2023-08-06T09:38:08;98229.88;;;16.95;89.58
79067;BME280;68470;50.224;14.348;2023-08-06T09:40:35;98228.41;;;16.98;89.45
79067;BME280;68470;50.224;14.348;2023-08-06T09:43:01;98224.19;;;16.92;88.12
79067;BME280;68470;50.224;14.348;2023-08-06T09:45:36;98224.91;;;17.09;89.15
79067;BME280;68470;50.224;14.348;2023-08-06T09:48:04;98225.94;;;16.96;87.30
79067;BME280;68470;50.224;14.348;2023-08-06T09:50:31;98219.41;;;17.01;86.82
79067;BME280;68470;50.224;14.348;2023-08-06T09:52:58;98221.66;;;17.07;87.64
79067;BME280;68470;50.224;14.348;2023-08-06T09:55:24;98223.47;;;17.33;87.73
79067;BME280;68470;50.224;14.348;2023-08-06T09:57:52;98217.56;;;17.55;87.20
79067;BME280;68470;50.224;14.348;2023-08-06T10:00:18;98223.47;;;17.33;86.15
79067;BME280;68470;50.224;14.348;2023-08-06T10:02:48;98215.19;;;17.66;85.15
79067;BME280;68470;50.224;14.348;2023-08-06T10:05:15;98209.97;;;17.85;84.69
79067;BME280;68470;50.224;14.348;2023-08-06T10:07:43;98217.84;;;17.83;83.56
79067;BME280;68470;50.224;14.348;2023-08-06T10:10:10;98214.44;;;17.78;82.46
79067;BME280;68470;50.224;14.348;2023-08-06T10:12:40;98214.66;;;17.72;84.33
79067;BME280;68470;50.224;14.348;2023-08-06T10:15:14;98207.56;;;17.54;83.17
79067;BME280;68470;50.224;14.348;2023-08-06T10:17:42;98207.84;;;17.61;83.36
79067;BME280;68470;50.224;14.348;2023-08-06T10:20:09;98209.81;;;17.61;82.61
79067;BME280;68470;50.224;14.348;2023-08-06T10:22:35;98205.53;;;17.63;82.78
79067;BME280;68470;50.224;14.348;2023-08-06T10:25:02;98212.19;;;17.50;82.51
79067;BME280;68470;50.224;14.348;2023-08-06T10:27:56;98201.91;;;17.71;83.13
79067;BME280;68470;50.224;14.348;2023-08-06T10:32:50;98208.09;;;17.27;83.83
79067;BME280;68470;50.224;14.348;2023-08-06T10:40:49;98195.91;;;17.40;82.94
79067;BME280;68470;50.224;14.348;2023-08-06T10:43:28;98188.03;;;17.84;80.40
79067;BME280;68470;50.224;14.348;2023-08-06T10:45:55;98190.47;;;17.85;79.78
79067;BME280;68470;50.224;14.348;2023-08-06T10:48:39;98194.38;;;18.05;78.06
79067;BME280;68470;50.224;14.348;2023-08-06T10:51:12;98195.91;;;17.82;80.05
79067;BME280;68470;50.224;14.348;2023-08-06T10:53:44;98192.78;;;18.16;77.78
79067;BME280;68470;50.224;14.348;2023-08-06T10:56:23;98194.38;;;18.50;78.41
79067;BME280;68470;50.224;14.348;2023-08-06T10:58:50;98194.56;;;18.45;75.95
79067;BME280;68470;50.224;14.348;2023-08-06T11:01:16;98183.66;;;18.40;75.80
79067;BME280;68470;50.224;14.348;2023-08-06T11:03:43;98190.97;;;18.32;75.57
79067;BME280;68470;50.224;14.348;2023-08-06T11:06:10;98189.66;;;17.85;76.80
79067;BME280;68470;50.224;14.348;2023-08-06T11:08:40;98194.03;;;17.32;77.31
79067;BME280;68470;50.224;14.348;2023-08-06T11:11:13;98189.09;;;17.08;78.75
79067;BME280;68470;50.224;14.348;2023-08-06T11:13:43;98196.78;;;16.81;78.69
79067;BME280;68470;50.224;14.348;2023-08-06T11:16:12;98199.94;;;17.01;78.98
79067;BME280;68470;50.224;14.348;2023-08-06T11:18:40;98187.34;;;17.24;77.23
79067;BME280;68470;50.224;14.348;2023-08-06T11:21:05;98189.28;;;17.32;76.58
79067;BME280;68470;50.224;14.348;2023-08-06T11:23:34;98191.28;;;17.65;74.90
79067;BME280;68470;50.224;14.348;2023-08-06T11:26:00;98188.16;;;17.66;75.66
79067;BME280;68470;50.224;14.348;2023-08-06T11:28:26;98193.44;;;18.01;74.23
79067;BME280;68470;50.224;14.348;2023-08-06T11:30:53;98188.50;;;17.86;74.26
79067;BME280;68470;50.224;14.348;2023-08-06T11:33:23;98183.81;;;17.98;74.89
79067;BME280;68470;50.224;14.348;2023-08-06T11:35:51;98187.91;;;18.25;74.88
79067;BME280;68470;50.224;14.348;2023-08-06T11:38:18;98178.09;;;18.40;73.41
79067;BME280;68470;50.224;14.348;2023-08-06T11:40:50;98176.59;;;18.55;74.64
79067;BME280;68470;50.224;14.348;2023-08-06T11:43:18;98180.41;;;18.62;73.78
79067;BME280;68470;50.224;14.348;2023-08-06T11:45:44;98189.63;;;18.87;74.14
79067;BME280;68470;50.224;14.348;2023-08-06T11:48:10;98180.41;;;18.62;73.64
79067;BME280;68470;50.224;14.348;2023-08-06T11:50:38;98182.22;;;18.67;74.74
79067;BME280;68470;50.224;14.348;2023-08-06T11:53:05;98182.53;;;18.53;75.59
79067;BME280;68470;50.224;14.348;2023-08-06T11:55:31;98185.69;;;18.76;75.19
79067;BME280;68470;50.224;14.348;2023-08-06T11:57:57;98173.84;;;18.79;74.53
79067;BME280;68470;50.224;14.348;2023-08-06T12:00:24;98178.97;;;18.65;75.07
79067;BME280;68470;50.224;14.348;2023-08-06T12:02:51;98179.59;;;18.62;75.03
79067;BME280;68470;50.224;14.348;2023-08-06T12:05:22;98177.56;;;18.71;74.85
79067;BME280;68470;50.224;14.348;2023-08-06T12:07:55;98171.25;;;18.62;74.55
79067;BME280;68470;50.224;14.348;2023-08-06T12:10:22;98167.00;;;18.89;73.29
79067;BME280;68470;50.224;14.348;2023-08-06T12:12:50;98175.84;;;19.31;73.06
79067;BME280;68470;50.224;14.348;2023-08-06T12:15:16;98162.03;;;19.35;72.18
79067;BME280;68470;50.224;14.348;2023-08-06T12:17:42;98166.69;;;19.31;71.70
79067;BME280;68470;50.224;14.348;2023-08-06T12:20:09;98175.19;;;19.22;70.68
79067;BME280;68470;50.224;14.348;2023-08-06T12:22:36;98167.28;;;19.12;71.47
79067;BME280;68470;50.224;14.348;2023-08-06T12:25:06;98160.19;;;19.14;71.97
79067;BME280;68470;50.224;14.348;2023-08-06T12:27:37;98163.50;;;19.04;71.32
79067;BME280;68470;50.224;14.348;2023-08-06T12:30:04;98160.81;;;18.96;71.98
79067;BME280;68470;50.224;14.348;2023-08-06T12:32:31;98157.91;;;18.92;70.83
79067;BME280;68470;50.224;14.348;2023-08-06T12:34:56;98162.56;;;19.00;71.68
79067;BME280;68470;50.224;14.348;2023-08-06T12:37:24;98158.38;;;18.94;72.71
79067;BME280;68470;50.224;14.348;2023-08-06T12:39:50;98166.63;;;19.03;71.13
79067;BME280;68470;50.224;14.348;2023-08-06T12:42:16;98160.56;;;19.13;72.09
79067;BME280;68470;50.224;14.348;2023-08-06T12:44:41;98144.75;;;19.17;73.77
79067;BME280;68470;50.224;14.348;2023-08-06T12:47:08;98156.84;;;19.21;72.97
79067;BME280;68470;50.224;14.348;2023-08-06T12:49:33;98162.88;;;19.23;74.52
79067;BME280;68470;50.224;14.348;2023-08-06T12:51:59;98151.97;;;19.18;73.00
79067;BME280;68470;50.224;14.348;2023-08-06T12:54:25;98148.31;;;19.30;70.70
79067;BME280;68470;50.224;14.348;2023-08-06T12:56:51;98151.34;;;19.37;70.78
79067;BME280;68470;50.224;14.348;2023-08-06T12:59:17;98160.94;;;19.51;68.78
79067;BME280;68470;50.224;14.348;2023-08-06T13:01:44;98162.88;;;19.63;66.59
79067;BME280;68470;50.224;14.348;2023-08-06T13:04:10;98156.25;;;19.68;67.33
79067;BME280;68470;50.224;14.348;2023-08-06T13:06:37;98153.56;;;19.71;65.42
79067;BME280;68470;50.224;14.348;2023-08-06T13:09:04;98162.88;;;20.19;65.03
79067;BME280;68470;50.224;14.348;2023-08-06T13:11:32;98158.31;;;20.58;63.49
79067;BME280;68470;50.224;14.348;2023-08-06T13:14:07;98153.28;;;20.99;61.55
79067;BME280;68470;50.224;14.348;2023-08-06T13:16:38;98145.91;;;21.07;60.03
79067;BME280;68470;50.224;14.348;2023-08-06T13:19:05;98146.94;;;21.34;59.30
79067;BME280;68470;50.224;14.348;2023-08-06T13:22:20;98147.59;;;21.11;58.99
79067;BME280;68470;50.224;14.348;2023-08-06T13:24:20;98144.75;;;20.92;59.99
79067;BME280;68470;50.224;14.348;2023-08-06T13:26:46;98147.53;;;20.92;60.71
79067;BME280;68470;50.224;14.348;2023-08-06T13:29:12;98145.34;;;20.66;60.03
79067;BME280;68470;50.224;14.348;2023-08-06T13:31:38;98157.50;;;20.58;61.64
79067;BME280;68470;50.224;14.348;2023-08-06T13:34:04;98156.97;;;20.52;62.29
79067;BME280;68470;50.224;14.348;2023-08-06T13:36:30;98147.00;;;20.23;61.50
79067;BME280;68470;50.224;14.348;2023-08-06T13:38:56;98152.13;;;20.05;64.23
79067;BME280;68470;50.224;14.348;2023-08-06T13:41:22;98157.03;;;20.40;63.17